Time;durP1;ratioP1;P1;durP2;ratioP2;P2;SDS_P1;SDS_P2;PMS_P1;PMS_P2;Temp;Humidity;BMP_temperature;BMP_pressure;BME280_temperature;BME280_humidity;BME280_pressure;Samples;Min_cycle;Max_cycle;Signal;HPM_P1;HPM_P2
2021/10/19 00:02:17;;;;;;;0.98;0.68;;;;;;;;;;5068259;28;20032;-88
2021/10/19 00:04:43;;;;;;;0.43;0.30;;;;;;;;;;5069460;28;20545;-89
2021/10/19 00:07:09;;;;;;;2.25;0.40;;;;;;;;;;5069967;28;20068;-90
2021/10/19 00:09:36;;;;;;;0.70;0.30;;;;;;;;;;5070852;28;20061;-89
2021/10/19 00:12:02;;;;;;;1.15;0.45;;;;;;;;;;5067437;28;20064;-89
2021/10/19 00:14:29;;;;;;;1.10;0.52;;;;;;;;;;5072714;28;20070;-89
2021/10/19 00:16:55;;;;;;;0.65;0.40;;;;;;;;;;5069815;28;20029;-89
2021/10/19 00:19:21;;;;;;;1.20;0.38;;;;;;;;;;5070831;28;20044;-89
2021/10/19 00:21:48;;;;;;;0.90;0.40;;;;;;;;;;5075371;28;20060;-90
2021/10/19 00:24:14;;;;;;;1.40;0.50;;;;;;;;;;5072673;28;20060;-90
2021/10/19 00:26:41;;;;;;;1.40;0.70;;;;;;;;;;5067348;28;20072;-89
2021/10/19 00:29:07;;;;;;;1.85;0.50;;;;;;;;;;5069431;28;20053;-89
2021/10/19 00:31:34;;;;;;;0.65;0.40;;;;;;;;;;5065715;28;20067;-91
2021/10/19 00:34:00;;;;;;;1.00;0.30;;;;;;;;;;5070920;28;20436;-91
2021/10/19 00:36:26;;;;;;;0.68;0.30;;;;;;;;;;5064215;28;20067;-90
2021/10/19 00:38:53;;;;;;;0.63;0.30;;;;;;;;;;5072897;28;20064;-89
2021/10/19 00:41:21;;;;;;;1.85;0.40;;;;;;;;;;5071297;28;20064;-90
2021/10/19 00:43:48;;;;;;;2.03;0.50;;;;;;;;;;5068145;28;20061;-91
2021/10/19 00:46:14;;;;;;;0.65;0.35;;;;;;;;;;5066052;28;20044;-89
2021/10/19 00:48:46;;;;;;;0.68;0.40;;;;;;;;;;5063060;28;20067;-89
2021/10/19 00:51:12;;;;;;;0.70;0.38;;;;;;;;;;5068004;28;20041;-90
2021/10/19 00:53:39;;;;;;;3.42;0.60;;;;;;;;;;5069902;28;20041;-90
2021/10/19 00:56:09;;;;;;;0.85;0.50;;;;;;;;;;5072237;28;20037;-91
2021/10/19 00:58:37;;;;;;;0.93;0.40;;;;;;;;;;5070254;28;20040;-91
2021/10/19 01:01:04;;;;;;;4.60;0.60;;;;;;;;;;5068752;28;20056;-90
2021/10/19 01:03:30;;;;;;;0.68;0.40;;;;;;;;;;5068221;28;20133;-90
2021/10/19 01:05:59;;;;;;;1.55;0.43;;;;;;;;;;5070118;28;20169;-90
2021/10/19 01:08:26;;;;;;;0.80;0.43;;;;;;;;;;5068709;28;20029;-90
2021/10/19 01:10:55;;;;;;;0.63;0.40;;;;;;;;;;5069436;28;20621;-91
2021/10/19 01:13:21;;;;;;;1.58;0.40;;;;;;;;;;5066518;28;20037;-91
2021/10/19 01:15:48;;;;;;;0.68;0.30;;;;;;;;;;5062331;28;20113;-90
2021/10/19 01:18:16;;;;;;;0.80;0.40;;;;;;;;;;5070412;28;20036;-90
2021/10/19 01:20:44;;;;;;;1.05;0.40;;;;;;;;;;5067410;28;20056;-90
2021/10/19 01:23:10;;;;;;;1.67;0.47;;;;;;;;;;5066974;28;20035;-91
2021/10/19 01:25:37;;;;;;;0.68;0.32;;;;;;;;;;5070474;28;20585;-91
2021/10/19 01:28:11;;;;;;;0.38;0.22;;;;;;;;;;5071263;28;20091;-90
2021/10/19 01:30:44;;;;;;;0.77;0.50;;;;;;;;;;5067582;28;20082;-90
2021/10/19 01:33:11;;;;;;;5.20;0.40;;;;;;;;;;5066402;28;20048;-90
2021/10/19 01:35:42;;;;;;;1.35;0.50;;;;;;;;;;5064490;28;20114;-89
2021/10/19 01:38:11;;;;;;;1.05;0.57;;;;;;;;;;5064438;28;20036;-88
2021/10/19 01:40:38;;;;;;;0.50;0.28;;;;;;;;;;5070946;28;20056;-87
2021/10/19 01:43:14;;;;;;;0.60;0.40;;;;;;;;;;5070156;28;20561;-88
2021/10/19 01:45:41;;;;;;;0.70;0.43;;;;;;;;;;5065979;28;20830;-88
2021/10/19 01:48:08;;;;;;;1.02;0.50;;;;;;;;;;5072022;28;20086;-88
2021/10/19 01:50:37;;;;;;;0.77;0.50;;;;;;;;;;5068018;28;20033;-88
2021/10/19 01:53:05;;;;;;;0.63;0.43;;;;;;;;;;5059330;28;20045;-87
2021/10/19 01:55:31;;;;;;;0.47;0.30;;;;;;;;;;5057577;28;20146;-88
2021/10/19 01:57:58;;;;;;;1.08;0.40;;;;;;;;;;5064628;28;20061;-87
2021/10/19 02:00:24;;;;;;;0.57;0.35;;;;;;;;;;5067223;28;20067;-88
2021/10/19 02:02:51;;;;;;;1.08;0.47;;;;;;;;;;5067203;28;20101;-89
2021/10/19 02:05:17;;;;;;;0.70;0.40;;;;;;;;;;5068912;28;21334;-87
2021/10/19 02:07:43;;;;;;;0.82;0.38;;;;;;;;;;5071178;28;20127;-87
2021/10/19 02:10:11;;;;;;;1.17;0.30;;;;;;;;;;5065449;28;20036;-87
2021/10/19 02:12:38;;;;;;;1.05;0.55;;;;;;;;;;5069158;28;20110;-87
2021/10/19 02:15:05;;;;;;;0.45;0.28;;;;;;;;;;5058209;28;20078;-86
2021/10/19 02:17:31;;;;;;;0.75;0.40;;;;;;;;;;5066251;28;20055;-87
2021/10/19 02:20:00;;;;;;;0.63;0.32;;;;;;;;;;5065801;28;20056;-87
2021/10/19 02:22:30;;;;;;;1.30;0.47;;;;;;;;;;5062667;28;20102;-86
2021/10/19 02:25:00;;;;;;;0.80;0.50;;;;;;;;;;5058598;28;20037;-88
2021/10/19 02:27:26;;;;;;;1.05;0.50;;;;;;;;;;5071042;28;20041;-89
2021/10/19 02:29:53;;;;;;;0.47;0.30;;;;;;;;;;5067563;28;20098;-87
2021/10/19 02:32:19;;;;;;;1.35;0.50;;;;;;;;;;5070146;28;20078;-87
2021/10/19 02:34:46;;;;;;;0.60;0.40;;;;;;;;;;5066974;28;20097;-86
2021/10/19 02:37:12;;;;;;;0.63;0.32;;;;;;;;;;5068506;28;20153;-86
2021/10/19 02:39:39;;;;;;;0.90;0.47;;;;;;;;;;5068673;28;20056;-86
2021/10/19 02:42:05;;;;;;;1.23;0.40;;;;;;;;;;5064068;28;20501;-86
2021/10/19 02:44:31;;;;;;;0.77;0.40;;;;;;;;;;5062235;28;20056;-86
2021/10/19 02:46:58;;;;;;;2.70;0.50;;;;;;;;;;5066867;28;20449;-85
2021/10/19 02:49:24;;;;;;;0.85;0.50;;;;;;;;;;5063201;28;20029;-89
2021/10/19 02:51:50;;;;;;;0.85;0.52;;;;;;;;;;5062532;28;20044;-90
2021/10/19 02:54:17;;;;;;;1.48;0.47;;;;;;;;;;5069565;28;20726;-90
2021/10/19 02:56:43;;;;;;;0.65;0.40;;;;;;;;;;5069880;28;20457;-90
2021/10/19 02:59:10;;;;;;;2.03;0.60;;;;;;;;;;5065090;28;20032;-90
2021/10/19 03:01:36;;;;;;;0.82;0.40;;;;;;;;;;5066726;28;20056;-88
2021/10/19 03:04:02;;;;;;;0.80;0.45;;;;;;;;;;5068631;28;20052;-88
2021/10/19 03:06:29;;;;;;;0.82;0.40;;;;;;;;;;5069486;28;20055;-88
2021/10/19 03:08:57;;;;;;;0.40;0.30;;;;;;;;;;5059480;28;20068;-90
2021/10/19 03:11:24;;;;;;;0.77;0.30;;;;;;;;;;5071534;28;20052;-89
2021/10/19 03:13:50;;;;;;;0.45;0.40;;;;;;;;;;5069744;28;20110;-88
2021/10/19 03:16:18;;;;;;;0.70;0.40;;;;;;;;;;5064449;28;20121;-85
2021/10/19 03:18:45;;;;;;;0.50;0.40;;;;;;;;;;5066074;28;20108;-83
2021/10/19 03:21:11;;;;;;;0.85;0.47;;;;;;;;;;5058775;28;20033;-84
2021/10/19 03:23:37;;;;;;;0.98;0.50;;;;;;;;;;5061080;28;20071;-83
2021/10/19 03:26:04;;;;;;;1.98;0.60;;;;;;;;;;5068375;28;20072;-86
2021/10/19 03:28:30;;;;;;;0.60;0.50;;;;;;;;;;5067575;28;20068;-84
2021/10/19 03:30:57;;;;;;;0.65;0.40;;;;;;;;;;5069224;28;20067;-84
2021/10/19 03:33:23;;;;;;;0.77;0.30;;;;;;;;;;5071708;28;20059;-82
2021/10/19 03:35:49;;;;;;;0.85;0.55;;;;;;;;;;5064116;28;20040;-83
2021/10/19 03:38:16;;;;;;;0.95;0.40;;;;;;;;;;5067132;28;20064;-83
2021/10/19 03:40:42;;;;;;;1.35;0.50;;;;;;;;;;5064701;28;20068;-83
2021/10/19 03:43:09;;;;;;;1.42;0.50;;;;;;;;;;5068402;28;20079;-83
2021/10/19 03:45:35;;;;;;;0.90;0.55;;;;;;;;;;5075867;28;20112;-83
2021/10/19 03:48:01;;;;;;;1.15;0.40;;;;;;;;;;5066500;28;20059;-83
2021/10/19 03:50:28;;;;;;;0.95;0.52;;;;;;;;;;5064437;28;20075;-82
2021/10/19 03:52:57;;;;;;;1.30;0.60;;;;;;;;;;5077435;28;20052;-82
2021/10/19 03:55:24;;;;;;;1.20;0.60;;;;;;;;;;5062123;28;20090;-83
2021/10/19 03:57:50;;;;;;;1.83;0.40;;;;;;;;;;5068428;28;20036;-82
2021/10/19 04:00:17;;;;;;;0.75;0.50;;;;;;;;;;5064367;28;20065;-83
2021/10/19 04:02:43;;;;;;;1.10;0.52;;;;;;;;;;5063539;28;20072;-83
2021/10/19 04:05:10;;;;;;;1.23;0.60;;;;;;;;;;5068761;28;20061;-83
2021/10/19 04:07:36;;;;;;;0.93;0.50;;;;;;;;;;5065754;28;20056;-82
2021/10/19 04:10:06;;;;;;;0.80;0.50;;;;;;;;;;5072769;28;20068;-83
2021/10/19 04:12:32;;;;;;;1.52;0.57;;;;;;;;;;5069699;28;20580;-83
2021/10/19 04:14:59;;;;;;;0.95;0.55;;;;;;;;;;5070376;28;20032;-82
2021/10/19 04:17:25;;;;;;;1.02;0.50;;;;;;;;;;5066951;28;20032;-83
2021/10/19 04:19:52;;;;;;;1.85;0.50;;;;;;;;;;5077090;28;20067;-82
2021/10/19 04:22:20;;;;;;;0.50;0.40;;;;;;;;;;5068587;28;22178;-82
2021/10/19 04:24:46;;;;;;;1.45;0.60;;;;;;;;;;5068889;28;20071;-82
2021/10/19 04:27:13;;;;;;;1.38;0.60;;;;;;;;;;5069654;28;20072;-84
2021/10/19 04:29:39;;;;;;;1.35;0.60;;;;;;;;;;5063889;28;20056;-85
2021/10/19 04:32:06;;;;;;;0.82;0.50;;;;;;;;;;5070791;28;20065;-85
2021/10/19 04:34:32;;;;;;;1.13;0.60;;;;;;;;;;5070867;28;20098;-85
2021/10/19 04:36:59;;;;;;;0.55;0.50;;;;;;;;;;5069689;28;20059;-84
2021/10/19 04:39:25;;;;;;;0.73;0.50;;;;;;;;;;5062714;28;20056;-83
2021/10/19 04:41:52;;;;;;;1.10;0.60;;;;;;;;;;5067427;28;20063;-82
2021/10/19 04:44:18;;;;;;;1.50;0.70;;;;;;;;;;5059492;28;20535;-82
2021/10/19 04:46:44;;;;;;;1.40;0.60;;;;;;;;;;5068211;28;20457;-85
2021/10/19 04:49:11;;;;;;;1.10;0.63;;;;;;;;;;5072026;28;20515;-84
2021/10/19 04:51:37;;;;;;;1.00;0.60;;;;;;;;;;5062397;28;20061;-84
2021/10/19 04:54:04;;;;;;;0.63;0.50;;;;;;;;;;5066641;28;20052;-83
2021/10/19 04:56:31;;;;;;;2.53;0.88;;;;;;;;;;5067566;28;20060;-84
2021/10/19 04:58:57;;;;;;;0.85;0.57;;;;;;;;;;5071804;28;20061;-83
2021/10/19 05:01:25;;;;;;;2.35;0.55;;;;;;;;;;5070226;28;20064;-84
2021/10/19 05:03:52;;;;;;;2.03;0.50;;;;;;;;;;5062813;28;20036;-83
2021/10/19 05:06:19;;;;;;;1.63;0.60;;;;;;;;;;5066375;28;21290;-83
2021/10/19 05:08:45;;;;;;;1.60;0.70;;;;;;;;;;5065293;28;20448;-83
2021/10/19 05:11:11;;;;;;;1.38;0.60;;;;;;;;;;5069250;28;20121;-84
2021/10/19 05:13:38;;;;;;;1.25;0.70;;;;;;;;;;5067084;28;20063;-84
2021/10/19 05:16:05;;;;;;;1.45;0.88;;;;;;;;;;5065031;28;20032;-83
2021/10/19 05:18:31;;;;;;;0.93;0.60;;;;;;;;;;5063032;28;20060;-83
2021/10/19 05:20:58;;;;;;;1.38;0.70;;;;;;;;;;5066690;28;20071;-83
2021/10/19 05:23:25;;;;;;;1.15;0.63;;;;;;;;;;5067947;28;20049;-85
2021/10/19 05:25:51;;;;;;;0.87;0.70;;;;;;;;;;5028512;28;1131350;-84
2021/10/19 05:28:18;;;;;;;1.23;0.63;;;;;;;;;;5069155;28;20060;-85
2021/10/19 05:30:44;;;;;;;1.50;0.77;;;;;;;;;;5066057;28;20063;-84
2021/10/19 05:33:11;;;;;;;2.10;0.70;;;;;;;;;;5071424;28;20052;-85
2021/10/19 05:35:37;;;;;;;1.58;0.80;;;;;;;;;;5069621;28;20068;-85
2021/10/19 05:38:03;;;;;;;1.70;0.77;;;;;;;;;;5068978;28;20040;-84
2021/10/19 05:40:30;;;;;;;2.28;1.00;;;;;;;;;;5068586;28;20086;-86
2021/10/19 05:42:56;;;;;;;1.02;0.60;;;;;;;;;;5069469;28;20068;-85
2021/10/19 05:45:23;;;;;;;1.92;0.70;;;;;;;;;;5066160;28;20064;-84
2021/10/19 05:47:49;;;;;;;1.05;0.80;;;;;;;;;;5070513;28;20033;-84
2021/10/19 05:50:16;;;;;;;1.05;0.70;;;;;;;;;;5066061;28;20055;-85
2021/10/19 05:52:43;;;;;;;1.20;0.60;;;;;;;;;;5067463;28;20079;-85
2021/10/19 05:55:10;;;;;;;1.67;0.80;;;;;;;;;;5064211;28;20083;-85
2021/10/19 05:57:38;;;;;;;1.98;0.90;;;;;;;;;;5066615;28;20057;-85
2021/10/19 06:00:06;;;;;;;1.00;0.70;;;;;;;;;;5064763;28;20067;-84
2021/10/19 06:02:32;;;;;;;1.20;0.63;;;;;;;;;;5068098;28;20135;-83
2021/10/19 06:04:59;;;;;;;1.55;0.77;;;;;;;;;;5061505;28;20060;-83
2021/10/19 06:07:25;;;;;;;1.20;0.80;;;;;;;;;;5066996;28;20040;-85
2021/10/19 06:09:52;;;;;;;1.15;0.90;;;;;;;;;;5065630;28;20028;-83
2021/10/19 06:12:18;;;;;;;2.65;0.88;;;;;;;;;;5068964;28;20063;-85
2021/10/19 06:14:44;;;;;;;1.45;0.70;;;;;;;;;;5064719;28;20067;-83
2021/10/19 06:17:17;;;;;;;1.35;0.70;;;;;;;;;;5066038;28;20060;-84
2021/10/19 06:19:43;;;;;;;0.93;0.70;;;;;;;;;;5067436;28;20064;-84
2021/10/19 06:22:10;;;;;;;1.50;0.90;;;;;;;;;;5077477;28;20056;-83
2021/10/19 06:24:36;;;;;;;1.20;0.75;;;;;;;;;;5063517;28;20479;-83
2021/10/19 06:27:02;;;;;;;0.98;0.77;;;;;;;;;;5075396;28;20067;-84
2021/10/19 06:29:29;;;;;;;0.90;0.70;;;;;;;;;;5072153;28;20133;-87
2021/10/19 06:31:56;;;;;;;1.25;0.82;;;;;;;;;;5066050;28;20139;-84
2021/10/19 06:34:22;;;;;;;1.58;0.80;;;;;;;;;;5073936;28;20575;-85
2021/10/19 06:36:49;;;;;;;1.30;0.82;;;;;;;;;;5076375;28;20094;-85
2021/10/19 06:39:15;;;;;;;1.15;0.80;;;;;;;;;;5068797;28;20056;-85
2021/10/19 06:41:42;;;;;;;1.25;0.80;;;;;;;;;;5067984;28;20461;-85
2021/10/19 06:44:08;;;;;;;1.42;0.73;;;;;;;;;;5065773;28;20143;-89
2021/10/19 06:46:35;;;;;;;1.58;0.93;;;;;;;;;;5075596;28;20117;-88
2021/10/19 06:49:01;;;;;;;1.83;0.85;;;;;;;;;;5059071;28;20048;-86
2021/10/19 06:51:27;;;;;;;1.50;0.90;;;;;;;;;;5067504;28;20708;-88
2021/10/19 06:53:54;;;;;;;1.73;0.82;;;;;;;;;;5063963;28;20028;-86
2021/10/19 06:56:20;;;;;;;2.65;0.90;;;;;;;;;;5059406;28;20044;-86
2021/10/19 06:58:46;;;;;;;2.53;0.80;;;;;;;;;;5062922;28;20063;-86
2021/10/19 07:01:14;;;;;;;2.28;0.85;;;;;;;;;;5068709;28;21908;-87
2021/10/19 07:03:40;;;;;;;2.85;1.02;;;;;;;;;;5069797;28;20067;-88
2021/10/19 07:06:07;;;;;;;2.03;1.00;;;;;;;;;;5067808;28;20085;-87
2021/10/19 07:08:34;;;;;;;1.80;0.90;;;;;;;;;;5048663;28;20033;-86
2021/10/19 07:11:00;;;;;;;1.50;0.90;;;;;;;;;;5071439;28;20074;-87
2021/10/19 07:13:27;;;;;;;1.58;1.00;;;;;;;;;;5067104;28;20053;-87
2021/10/19 07:15:54;;;;;;;1.45;1.00;;;;;;;;;;5070374;28;20036;-87
2021/10/19 07:18:21;;;;;;;1.38;0.82;;;;;;;;;;5074468;28;21247;-86
2021/10/19 07:20:49;;;;;;;1.73;0.85;;;;;;;;;;5066461;28;20060;-86
2021/10/19 07:23:15;;;;;;;1.52;1.00;;;;;;;;;;5069290;28;20581;-87
2021/10/19 07:25:42;;;;;;;2.15;0.93;;;;;;;;;;5066057;28;20068;-87
2021/10/19 07:28:09;;;;;;;1.75;1.00;;;;;;;;;;5070519;28;20519;-87
2021/10/19 07:30:35;;;;;;;1.58;0.98;;;;;;;;;;5072517;28;20059;-86
2021/10/19 07:33:02;;;;;;;1.60;0.90;;;;;;;;;;5072608;28;20032;-87
2021/10/19 07:35:28;;;;;;;1.45;0.90;;;;;;;;;;5070349;28;20059;-86
2021/10/19 07:37:54;;;;;;;1.60;0.90;;;;;;;;;;5069674;28;20075;-87
2021/10/19 07:40:22;;;;;;;1.42;0.80;;;;;;;;;;5071507;28;20056;-87
2021/10/19 07:42:49;;;;;;;1.52;0.90;;;;;;;;;;5067258;28;20140;-86
2021/10/19 07:45:15;;;;;;;4.43;1.20;;;;;;;;;;5063707;28;20056;-86
2021/10/19 07:47:47;;;;;;;2.17;0.90;;;;;;;;;;5069573;28;20033;-86
2021/10/19 07:50:14;;;;;;;2.10;0.90;;;;;;;;;;5067965;28;20045;-86
2021/10/19 07:52:44;;;;;;;1.23;0.82;;;;;;;;;;5063641;28;20057;-86
2021/10/19 07:55:11;;;;;;;1.13;0.73;;;;;;;;;;5069109;28;20056;-86
2021/10/19 07:57:44;;;;;;;2.22;0.95;;;;;;;;;;5068669;28;20345;-87
2021/10/19 08:00:12;;;;;;;1.58;0.90;;;;;;;;;;5075149;28;20044;-87
2021/10/19 08:02:41;;;;;;;1.33;0.90;;;;;;;;;;5067383;28;20069;-86
2021/10/19 08:05:15;;;;;;;1.70;1.00;;;;;;;;;;5066175;28;20063;-87
2021/10/19 08:07:42;;;;;;;1.65;0.95;;;;;;;;;;5067782;28;20052;-86
2021/10/19 08:10:10;;;;;;;1.85;1.00;;;;;;;;;;5066574;28;20056;-86
2021/10/19 08:12:36;;;;;;;2.70;1.25;;;;;;;;;;5069242;28;20036;-86
2021/10/19 08:15:04;;;;;;;1.65;0.90;;;;;;;;;;5067381;28;20057;-86
2021/10/19 08:17:30;;;;;;;1.45;1.10;;;;;;;;;;5068295;28;20106;-86
2021/10/19 08:20:00;;;;;;;2.05;1.00;;;;;;;;;;5074543;28;20457;-87
2021/10/19 08:22:28;;;;;;;1.52;0.82;;;;;;;;;;5069621;28;20072;-87
2021/10/19 08:24:55;;;;;;;2.00;1.05;;;;;;;;;;5062990;28;20053;-82
2021/10/19 08:27:22;;;;;;;1.60;1.00;;;;;;;;;;5062892;28;20053;-87
2021/10/19 08:29:48;;;;;;;1.50;1.00;;;;;;;;;;5073394;28;20052;-87
2021/10/19 08:32:15;;;;;;;1.75;1.08;;;;;;;;;;5073680;28;20036;-88
2021/10/19 08:34:41;;;;;;;2.90;1.35;;;;;;;;;;5072416;28;20152;-87
2021/10/19 08:37:08;;;;;;;1.85;1.00;;;;;;;;;;5063066;28;20056;-88
2021/10/19 08:39:34;;;;;;;1.90;1.02;;;;;;;;;;5072420;28;20453;-86
2021/10/19 08:42:02;;;;;;;2.00;1.13;;;;;;;;;;5071302;28;20060;-87
2021/10/19 08:44:28;;;;;;;1.73;1.00;;;;;;;;;;5061757;28;20082;-87
2021/10/19 08:46:55;;;;;;;2.72;1.02;;;;;;;;;;5075213;28;20562;-86
2021/10/19 08:49:22;;;;;;;1.52;1.05;;;;;;;;;;5068848;28;20055;-86
2021/10/19 08:51:48;;;;;;;1.58;0.90;;;;;;;;;;5070717;28;20032;-88
2021/10/19 08:54:16;;;;;;;1.63;1.10;;;;;;;;;;5071534;28;20086;-87
2021/10/19 08:56:42;;;;;;;2.10;1.08;;;;;;;;;;5067987;28;20055;-87
2021/10/19 08:59:11;;;;;;;1.70;1.05;;;;;;;;;;5058200;28;20060;-86
2021/10/19 09:01:39;;;;;;;1.27;0.90;;;;;;;;;;5071210;28;20124;-85
2021/10/19 09:04:10;;;;;;;1.67;0.90;;;;;;;;;;5070717;28;20025;-87
2021/10/19 09:06:38;;;;;;;1.50;0.90;;;;;;;;;;5071254;28;20036;-86
2021/10/19 09:09:07;;;;;;;1.90;1.10;;;;;;;;;;5064111;28;20036;-86
2021/10/19 09:11:37;;;;;;;1.33;1.02;;;;;;;;;;5073452;28;20040;-87
2021/10/19 09:14:03;;;;;;;2.13;1.20;;;;;;;;;;5064251;28;20498;-85
2021/10/19 09:16:37;;;;;;;2.38;1.00;;;;;;;;;;5062970;28;20029;-86
2021/10/19 09:19:04;;;;;;;1.50;1.00;;;;;;;;;;5068148;28;20052;-87
2021/10/19 09:21:30;;;;;;;1.58;1.05;;;;;;;;;;5067995;28;20120;-86
2021/10/19 09:24:17;;;;;;;1.90;1.02;;;;;;;;;;5069138;28;20041;-86
2021/10/19 09:27:12;;;;;;;1.98;1.10;;;;;;;;;;5063436;28;20079;-86
2021/10/19 09:29:44;;;;;;;1.67;0.90;;;;;;;;;;5059110;28;22560;-85
2021/10/19 09:32:12;;;;;;;1.15;0.90;;;;;;;;;;5069972;28;20029;-87
2021/10/19 09:34:41;;;;;;;1.83;1.10;;;;;;;;;;5067432;28;20118;-86
2021/10/19 09:37:10;;;;;;;1.88;1.10;;;;;;;;;;5074357;28;20044;-87
2021/10/19 09:39:40;;;;;;;1.90;1.10;;;;;;;;;;5072058;28;20061;-87
2021/10/19 09:42:11;;;;;;;2.97;1.08;;;;;;;;;;5069955;28;20656;-86
2021/10/19 09:44:37;;;;;;;1.45;0.90;;;;;;;;;;5071618;28;20033;-87
2021/10/19 09:47:04;;;;;;;1.45;0.90;;;;;;;;;;5061664;28;20054;-84
2021/10/19 09:49:31;;;;;;;1.70;1.00;;;;;;;;;;5060716;28;20065;-86
2021/10/19 09:52:00;;;;;;;1.75;1.05;;;;;;;;;;5060009;28;21282;-86
2021/10/19 09:54:28;;;;;;;1.60;0.90;;;;;;;;;;5056693;28;20060;-87
2021/10/19 09:56:56;;;;;;;1.83;0.95;;;;;;;;;;5053549;28;20499;-81
2021/10/19 09:59:22;;;;;;;2.40;1.10;;;;;;;;;;5069915;28;20403;-88
2021/10/19 10:01:49;;;;;;;1.52;1.00;;;;;;;;;;5065318;28;20049;-87
2021/10/19 10:04:15;;;;;;;1.77;1.08;;;;;;;;;;5066057;28;20033;-87
2021/10/19 10:06:42;;;;;;;1.55;1.00;;;;;;;;;;5064273;28;20060;-88
2021/10/19 10:09:09;;;;;;;1.80;1.10;;;;;;;;;;5062626;28;20078;-89
2021/10/19 10:11:39;;;;;;;1.65;1.00;;;;;;;;;;5061223;28;20087;-88
2021/10/19 10:14:07;;;;;;;1.98;1.08;;;;;;;;;;5065577;28;20082;-89
2021/10/19 10:16:49;;;;;;;2.28;1.17;;;;;;;;;;5069436;28;20060;-88
2021/10/19 10:19:18;;;;;;;1.85;1.10;;;;;;;;;;5064822;28;20028;-88
2021/10/19 10:21:48;;;;;;;1.92;1.15;;;;;;;;;;5065895;28;20060;-87
2021/10/19 10:24:15;;;;;;;1.83;1.20;;;;;;;;;;5068633;28;20528;-89
2021/10/19 10:26:41;;;;;;;1.83;0.98;;;;;;;;;;5070863;28;20044;-87
2021/10/19 10:29:07;;;;;;;1.85;1.10;;;;;;;;;;5069296;28;20048;-87
2021/10/19 10:31:44;;;;;;;2.28;1.13;;;;;;;;;;5067282;28;20089;-87
2021/10/19 10:34:12;;;;;;;2.00;1.17;;;;;;;;;;5065926;28;20337;-87
2021/10/19 10:36:43;;;;;;;2.22;1.20;;;;;;;;;;5067700;28;20032;-86
2021/10/19 10:39:10;;;;;;;;;;;;;;;;;;5069473;28;20032;-87
2021/10/19 10:41:41;;;;;;;1.50;1.10;;;;;;;;;;5069867;28;20408;-86
2021/10/19 10:44:09;;;;;;;1.70;1.08;;;;;;;;;;5069318;28;20040;-86
2021/10/19 10:46:35;;;;;;;1.83;1.40;;;;;;;;;;5065523;28;20033;-87
2021/10/19 10:49:02;;;;;;;1.88;1.20;;;;;;;;;;5069188;28;20086;-86
2021/10/19 10:51:33;;;;;;;2.13;1.20;;;;;;;;;;5060941;28;20056;-86
2021/10/19 10:54:00;;;;;;;1.95;1.13;;;;;;;;;;5063233;28;20024;-88
2021/10/19 10:56:40;;;;;;;1.40;1.00;;;;;;;;;;5067567;28;20041;-88
2021/10/19 10:59:06;;;;;;;1.63;1.05;;;;;;;;;;5063272;28;20029;-86
2021/10/19 11:01:32;;;;;;;1.73;1.25;;;;;;;;;;5070022;28;20071;-86
2021/10/19 11:04:07;;;;;;;2.30;1.27;;;;;;;;;;5070113;28;20085;-86
2021/10/19 11:06:34;;;;;;;2.17;1.38;;;;;;;;;;5066592;28;20041;-86
2021/10/19 11:09:04;;;;;;;1.65;1.17;;;;;;;;;;5066297;28;20087;-86
2021/10/19 11:11:35;;;;;;;2.47;1.27;;;;;;;;;;5068132;28;20032;-86
2021/10/19 11:14:04;;;;;;;2.15;1.10;;;;;;;;;;5071808;28;20020;-85
2021/10/19 11:16:43;;;;;;;1.58;1.10;;;;;;;;;;5067455;28;20033;-85
2021/10/19 11:19:22;;;;;;;2.72;1.40;;;;;;;;;;5059524;28;20559;-86
2021/10/19 11:21:53;;;;;;;2.22;1.40;;;;;;;;;;5067525;28;20465;-87
2021/10/19 11:24:20;;;;;;;1.77;1.13;;;;;;;;;;5058905;28;20049;-88
2021/10/19 11:26:47;;;;;;;1.92;1.10;;;;;;;;;;5068143;28;20563;-87
2021/10/19 11:29:14;;;;;;;1.83;1.20;;;;;;;;;;5066127;28;20572;-89
2021/10/19 11:31:40;;;;;;;1.98;1.20;;;;;;;;;;5065940;28;20056;-89
2021/10/19 11:34:07;;;;;;;2.28;1.10;;;;;;;;;;5058090;28;20025;-89
2021/10/19 11:36:34;;;;;;;2.13;1.10;;;;;;;;;;5069075;28;20036;-89
2021/10/19 11:39:04;;;;;;;2.95;1.52;;;;;;;;;;5063506;28;20079;-87
2021/10/19 11:41:31;;;;;;;2.08;1.42;;;;;;;;;;5065291;28;20037;-89
2021/10/19 11:43:59;;;;;;;1.95;1.25;;;;;;;;;;5064448;28;20060;-90
2021/10/19 11:46:27;;;;;;;1.95;1.20;;;;;;;;;;5055466;28;20032;-89
2021/10/19 11:48:55;;;;;;;2.20;1.25;;;;;;;;;;5063847;28;20037;-89
2021/10/19 11:51:23;;;;;;;1.88;1.20;;;;;;;;;;5066828;28;20504;-89
2021/10/19 11:53:50;;;;;;;2.80;1.30;;;;;;;;;;5071816;28;20036;-90
2021/10/19 11:56:18;;;;;;;2.20;1.40;;;;;;;;;;5068709;28;20071;-89
2021/10/19 11:58:55;;;;;;;2.60;1.38;;;;;;;;;;5069599;28;20068;-90
2021/10/19 12:01:22;;;;;;;2.17;1.20;;;;;;;;;;5062416;28;20025;-89
2021/10/19 12:04:02;;;;;;;2.35;1.33;;;;;;;;;;5063949;28;20048;-85
2021/10/19 12:06:30;;;;;;;2.40;1.48;;;;;;;;;;5068433;28;20079;-86
2021/10/19 12:08:57;;;;;;;2.13;1.30;;;;;;;;;;5071418;28;20841;-85
2021/10/19 12:11:24;;;;;;;2.47;1.40;;;;;;;;;;5068912;28;20056;-85
2021/10/19 12:13:55;;;;;;;2.05;1.17;;;;;;;;;;5072096;28;20561;-86
2021/10/19 12:16:24;;;;;;;1.58;1.10;;;;;;;;;;5069508;28;21368;-85
2021/10/19 12:18:52;;;;;;;2.40;1.45;;;;;;;;;;5063429;28;20129;-84
2021/10/19 12:21:18;;;;;;;2.13;1.13;;;;;;;;;;5072113;28;20059;-85
2021/10/19 12:23:52;;;;;;;2.22;1.40;;;;;;;;;;5070133;28;20036;-85
2021/10/19 12:26:20;;;;;;;2.42;1.48;;;;;;;;;;5066028;28;20123;-85
2021/10/19 12:28:50;;;;;;;2.17;1.40;;;;;;;;;;5072986;28;20036;-85
2021/10/19 12:31:17;;;;;;;2.22;1.40;;;;;;;;;;5071428;28;20089;-85
2021/10/19 12:33:44;;;;;;;1.88;1.30;;;;;;;;;;5067090;28;20037;-88
2021/10/19 12:36:10;;;;;;;2.30;1.30;;;;;;;;;;5053238;28;20033;-89
2021/10/19 12:38:42;;;;;;;2.72;1.55;;;;;;;;;;5065544;28;20111;-85
2021/10/19 12:41:08;;;;;;;;;;;;;;;;;;5065015;28;20033;-87
2021/10/19 12:43:35;;;;;;;2.50;1.55;;;;;;;;;;5066912;28;19952;-85
2021/10/19 12:46:03;;;;;;;2.28;1.40;;;;;;;;;;5063870;28;20500;-84
2021/10/19 12:48:32;;;;;;;2.03;1.30;;;;;;;;;;5059601;28;20094;-87
2021/10/19 12:51:05;;;;;;;2.10;1.40;;;;;;;;;;5066150;28;20064;-86
2021/10/19 12:53:34;;;;;;;2.53;1.40;;;;;;;;;;5063591;28;20048;-85
2021/10/19 12:56:00;;;;;;;2.22;1.40;;;;;;;;;;5052346;28;20064;-84
2021/10/19 12:58:28;;;;;;;2.38;1.40;;;;;;;;;;5067522;28;20056;-85
2021/10/19 13:00:54;;;;;;;2.03;1.40;;;;;;;;;;5064726;28;20041;-86
2021/10/19 13:03:21;;;;;;;2.05;1.40;;;;;;;;;;5062863;28;20059;-88
2021/10/19 13:05:50;;;;;;;2.38;1.23;;;;;;;;;;5071337;28;20037;-86
2021/10/19 13:08:16;;;;;;;2.33;1.50;;;;;;;;;;5061561;28;20052;-85
2021/10/19 13:10:43;;;;;;;2.17;1.40;;;;;;;;;;5058375;28;20103;-85
2021/10/19 13:13:09;;;;;;;3.67;1.77;;;;;;;;;;5061337;28;20053;-87
2021/10/19 13:15:37;;;;;;;2.30;1.48;;;;;;;;;;5066362;28;20113;-85
2021/10/19 13:18:05;;;;;;;1.95;1.30;;;;;;;;;;5061111;28;20066;-85
2021/10/19 13:20:31;;;;;;;3.15;1.67;;;;;;;;;;5065382;28;20024;-85
2021/10/19 13:22:58;;;;;;;2.78;1.60;;;;;;;;;;5075480;28;20033;-86
2021/10/19 13:25:25;;;;;;;2.92;1.63;;;;;;;;;;5063117;28;20028;-88
2021/10/19 13:27:52;;;;;;;2.25;1.30;;;;;;;;;;5062678;28;20072;-86
2021/10/19 13:30:20;;;;;;;2.00;1.40;;;;;;;;;;5053649;28;20094;-85
2021/10/19 13:32:48;;;;;;;3.17;1.50;;;;;;;;;;5069279;28;20064;-85
2021/10/19 13:35:15;;;;;;;2.40;1.45;;;;;;;;;;5063453;28;21476;-85
2021/10/19 13:37:42;;;;;;;2.60;1.67;;;;;;;;;;5057303;28;20032;-86
2021/10/19 13:40:09;;;;;;;2.47;1.70;;;;;;;;;;5059209;28;20066;-85
2021/10/19 13:42:36;;;;;;;2.45;1.70;;;;;;;;;;5050237;28;20072;-86
2021/10/19 13:45:03;;;;;;;3.30;1.80;;;;;;;;;;5062404;28;20028;-85
2021/10/19 13:47:30;;;;;;;2.22;1.60;;;;;;;;;;5064677;28;20040;-86
2021/10/19 13:49:58;;;;;;;2.38;1.58;;;;;;;;;;5064258;28;20061;-86
2021/10/19 13:52:25;;;;;;;2.67;1.67;;;;;;;;;;5059861;28;20040;-86
2021/10/19 13:54:52;;;;;;;2.55;1.67;;;;;;;;;;5073917;28;20086;-87
2021/10/19 13:57:18;;;;;;;2.10;1.50;;;;;;;;;;5073032;28;20037;-85
2021/10/19 13:59:45;;;;;;;2.00;1.40;;;;;;;;;;5073153;28;20059;-85
2021/10/19 14:02:11;;;;;;;2.22;1.60;;;;;;;;;;5061604;28;20113;-87
2021/10/19 14:04:38;;;;;;;2.30;1.60;;;;;;;;;;5071115;28;20028;-87
2021/10/19 14:07:08;;;;;;;2.28;1.27;;;;;;;;;;5068497;28;20036;-85
2021/10/19 14:09:34;;;;;;;2.22;1.70;;;;;;;;;;5064417;28;20033;-86
2021/10/19 14:12:01;;;;;;;3.03;1.70;;;;;;;;;;5065682;28;20029;-85
2021/10/19 14:14:28;;;;;;;2.15;1.65;;;;;;;;;;5066204;28;20453;-87
2021/10/19 14:16:55;;;;;;;2.75;1.65;;;;;;;;;;5069377;28;20144;-85
2021/10/19 14:19:22;;;;;;;2.42;1.63;;;;;;;;;;5068025;28;20577;-85
2021/10/19 14:21:51;;;;;;;2.63;1.65;;;;;;;;;;5071991;28;20079;-86
2021/10/19 14:24:18;;;;;;;3.50;1.60;;;;;;;;;;5076495;28;20056;-86
2021/10/19 14:26:45;;;;;;;2.90;1.60;;;;;;;;;;5073499;28;20040;-87
2021/10/19 14:29:11;;;;;;;2.10;1.45;;;;;;;;;;5074903;28;20025;-87
2021/10/19 14:31:38;;;;;;;1.88;1.40;;;;;;;;;;5069693;28;20059;-87
2021/10/19 14:34:05;;;;;;;3.08;1.60;;;;;;;;;;5074256;28;20059;-86
2021/10/19 14:36:31;;;;;;;2.90;1.80;;;;;;;;;;5073849;28;20037;-86
2021/10/19 14:38:58;;;;;;;2.83;1.90;;;;;;;;;;5072997;28;20033;-88
2021/10/19 14:41:24;;;;;;;2.33;1.50;;;;;;;;;;5069447;28;20048;-85
2021/10/19 14:43:50;;;;;;;3.80;1.80;;;;;;;;;;5065897;28;20076;-86
2021/10/19 14:46:18;;;;;;;2.75;1.70;;;;;;;;;;5071997;28;20045;-85